sensor_id;sensor_type;location;lat;lon;timestamp;P1;durP1;ratioP1;P2;durP2;ratioP2
5428;SDS011;2737;52.386;9.980;2022-09-27T00:02:01;1.90;;;1.30;;
5428;SDS011;2737;52.386;9.980;2022-09-27T00:04:31;2.17;;;1.50;;
5428;SDS011;2737;52.386;9.980;2022-09-27T00:06:59;1.37;;;1.27;;
5428;SDS011;2737;52.386;9.980;2022-09-27T00:09:26;3.13;;;1.20;;
5428;SDS011;2737;52.386;9.980;2022-09-27T00:11:54;2.73;;;1.30;;
5428;SDS011;2737;52.386;9.980;2022-09-27T00:14:22;1.17;;;1.10;;
5428;SDS011;2737;52.386;9.980;2022-09-27T00:16:49;3.70;;;1.10;;
5428;SDS011;2737;52.386;9.980;2022-09-27T00:19:17;2.60;;;1.47;;
5428;SDS011;2737;52.386;9.980;2022-09-27T00:21:46;1.67;;;1.27;;
5428;SDS011;2737;52.386;9.980;2022-09-27T00:24:16;1.50;;;1.40;;
5428;SDS011;2737;52.386;9.980;2022-09-27T00:26:46;1.53;;;1.27;;
5428;SDS011;2737;52.386;9.980;2022-09-27T00:29:15;1.23;;;1.13;;
5428;SDS011;2737;52.386;9.980;2022-09-27T00:31:43;2.03;;;1.10;;
5428;SDS011;2737;52.386;9.980;2022-09-27T00:34:12;1.77;;;1.30;;
5428;SDS011;2737;52.386;9.980;2022-09-27T00:36:44;1.43;;;1.07;;
5428;SDS011;2737;52.386;9.980;2022-09-27T00:39:11;1.70;;;1.10;;
5428;SDS011;2737;52.386;9.980;2022-09-27T00:41:39;3.30;;;1.00;;
5428;SDS011;2737;52.386;9.980;2022-09-27T00:47:10;1.87;;;1.43;;
5428;SDS011;2737;52.386;9.980;2022-09-27T00:49:41;1.60;;;1.43;;
5428;SDS011;2737;52.386;9.980;2022-09-27T00:52:15;3.33;;;1.73;;
5428;SDS011;2737;52.386;9.980;2022-09-27T00:54:48;1.53;;;1.30;;
5428;SDS011;2737;52.386;9.980;2022-09-27T00:57:22;1.73;;;1.50;;
5428;SDS011;2737;52.386;9.980;2022-09-27T00:59:50;1.37;;;1.27;;
5428;SDS011;2737;52.386;9.980;2022-09-27T01:02:23;3.00;;;1.70;;
5428;SDS011;2737;52.386;9.980;2022-09-27T01:04:50;2.20;;;2.00;;
5428;SDS011;2737;52.386;9.980;2022-09-27T01:07:18;2.27;;;1.70;;
5428;SDS011;2737;52.386;9.980;2022-09-27T01:09:45;2.50;;;1.60;;
5428;SDS011;2737;52.386;9.980;2022-09-27T01:12:14;1.83;;;1.43;;
5428;SDS011;2737;52.386;9.980;2022-09-27T01:14:54;2.37;;;1.60;;
5428;SDS011;2737;52.386;9.980;2022-09-27T01:17:34;2.10;;;1.47;;
5428;SDS011;2737;52.386;9.980;2022-09-27T01:20:25;1.57;;;1.47;;
5428;SDS011;2737;52.386;9.980;2022-09-27T01:23:19;2.70;;;1.80;;
5428;SDS011;2737;52.386;9.980;2022-09-27T01:26:10;2.20;;;1.60;;
5428;SDS011;2737;52.386;9.980;2022-09-27T01:28:47;1.50;;;1.40;;
5428;SDS011;2737;52.386;9.980;2022-09-27T01:31:25;1.90;;;1.33;;
5428;SDS011;2737;52.386;9.980;2022-09-27T01:33:59;1.97;;;1.37;;
5428;SDS011;2737;52.386;9.980;2022-09-27T01:36:31;2.00;;;1.13;;
5428;SDS011;2737;52.386;9.980;2022-09-27T01:39:08;2.53;;;1.23;;
5428;SDS011;2737;52.386;9.980;2022-09-27T01:41:47;2.00;;;1.43;;
5428;SDS011;2737;52.386;9.980;2022-09-27T01:44:23;1.57;;;1.47;;
5428;SDS011;2737;52.386;9.980;2022-09-27T01:46:57;2.30;;;1.67;;
5428;SDS011;2737;52.386;9.980;2022-09-27T01:49:39;8.20;;;1.70;;
5428;SDS011;2737;52.386;9.980;2022-09-27T01:52:14;4.63;;;1.80;;
5428;SDS011;2737;52.386;9.980;2022-09-27T01:54:45;2.20;;;1.83;;
5428;SDS011;2737;52.386;9.980;2022-09-27T01:57:19;2.50;;;2.17;;
5428;SDS011;2737;52.386;9.980;2022-09-27T01:59:50;2.23;;;2.03;;
5428;SDS011;2737;52.386;9.980;2022-09-27T02:02:22;2.70;;;2.23;;
5428;SDS011;2737;52.386;9.980;2022-09-27T02:04:51;2.97;;;2.20;;
5428;SDS011;2737;52.386;9.980;2022-09-27T02:07:26;2.23;;;2.03;;
5428;SDS011;2737;52.386;9.980;2022-09-27T02:09:58;4.50;;;2.70;;
5428;SDS011;2737;52.386;9.980;2022-09-27T02:12:29;3.03;;;2.60;;
5428;SDS011;2737;52.386;9.980;2022-09-27T02:15:00;2.77;;;2.43;;
5428;SDS011;2737;52.386;9.980;2022-09-27T02:17:36;5.40;;;2.80;;
5428;SDS011;2737;52.386;9.980;2022-09-27T02:20:10;6.53;;;3.20;;
5428;SDS011;2737;52.386;9.980;2022-09-27T02:22:43;4.10;;;3.00;;
5428;SDS011;2737;52.386;9.980;2022-09-27T02:25:16;3.20;;;2.90;;
5428;SDS011;2737;52.386;9.980;2022-09-27T02:27:49;5.10;;;3.40;;
5428;SDS011;2737;52.386;9.980;2022-09-27T02:30:27;6.70;;;3.60;;
5428;SDS011;2737;52.386;9.980;2022-09-27T02:32:55;3.47;;;2.90;;
5428;SDS011;2737;52.386;9.980;2022-09-27T02:35:23;2.80;;;2.60;;
5428;SDS011;2737;52.386;9.980;2022-09-27T02:37:54;4.20;;;2.90;;
5428;SDS011;2737;52.386;9.980;2022-09-27T02:40:21;5.93;;;3.23;;
5428;SDS011;2737;52.386;9.980;2022-09-27T02:42:49;5.60;;;3.50;;
5428;SDS011;2737;52.386;9.980;2022-09-27T02:45:17;5.37;;;3.67;;
5428;SDS011;2737;52.386;9.980;2022-09-27T02:47:53;6.20;;;3.40;;
5428;SDS011;2737;52.386;9.980;2022-09-27T02:50:41;5.33;;;3.20;;
5428;SDS011;2737;52.386;9.980;2022-09-27T02:53:30;6.43;;;3.93;;
5428;SDS011;2737;52.386;9.980;2022-09-27T02:56:13;3.83;;;3.43;;
5428;SDS011;2737;52.386;9.980;2022-09-27T02:58:51;6.40;;;4.07;;
5428;SDS011;2737;52.386;9.980;2022-09-27T03:01:26;6.37;;;3.87;;
5428;SDS011;2737;52.386;9.980;2022-09-27T03:04:03;8.33;;;3.90;;
5428;SDS011;2737;52.386;9.980;2022-09-27T03:06:36;5.63;;;3.90;;
5428;SDS011;2737;52.386;9.980;2022-09-27T03:09:12;6.93;;;4.17;;
5428;SDS011;2737;52.386;9.980;2022-09-27T03:11:42;6.07;;;4.10;;
5428;SDS011;2737;52.386;9.980;2022-09-27T03:14:09;4.73;;;4.07;;
5428;SDS011;2737;52.386;9.980;2022-09-27T03:16:36;8.33;;;3.93;;
5428;SDS011;2737;52.386;9.980;2022-09-27T03:19:05;8.23;;;4.40;;
5428;SDS011;2737;52.386;9.980;2022-09-27T03:21:32;7.93;;;4.53;;
5428;SDS011;2737;52.386;9.980;2022-09-27T03:24:00;5.20;;;3.90;;
5428;SDS011;2737;52.386;9.980;2022-09-27T03:26:27;5.97;;;4.17;;
5428;SDS011;2737;52.386;9.980;2022-09-27T03:28:54;11.17;;;4.43;;
5428;SDS011;2737;52.386;9.980;2022-09-27T03:31:21;7.80;;;4.53;;
5428;SDS011;2737;52.386;9.980;2022-09-27T03:33:48;5.90;;;4.00;;
5428;SDS011;2737;52.386;9.980;2022-09-27T03:36:16;4.50;;;3.63;;
5428;SDS011;2737;52.386;9.980;2022-09-27T03:38:43;11.30;;;4.80;;
5428;SDS011;2737;52.386;9.980;2022-09-27T03:41:13;8.90;;;4.87;;
5428;SDS011;2737;52.386;9.980;2022-09-27T03:43:40;9.90;;;4.60;;
5428;SDS011;2737;52.386;9.980;2022-09-27T03:46:07;7.37;;;3.97;;
5428;SDS011;2737;52.386;9.980;2022-09-27T03:48:37;8.87;;;4.43;;
5428;SDS011;2737;52.386;9.980;2022-09-27T03:51:06;6.83;;;4.53;;
5428;SDS011;2737;52.386;9.980;2022-09-27T03:53:35;6.87;;;4.30;;
5428;SDS011;2737;52.386;9.980;2022-09-27T03:56:02;4.40;;;3.13;;
5428;SDS011;2737;52.386;9.980;2022-09-27T03:58:29;5.23;;;3.97;;
5428;SDS011;2737;52.386;9.980;2022-09-27T04:00:56;5.73;;;4.03;;
5428;SDS011;2737;52.386;9.980;2022-09-27T04:03:23;5.20;;;4.03;;
5428;SDS011;2737;52.386;9.980;2022-09-27T04:05:51;6.93;;;4.30;;
5428;SDS011;2737;52.386;9.980;2022-09-27T04:08:18;5.70;;;4.50;;
5428;SDS011;2737;52.386;9.980;2022-09-27T04:10:47;8.10;;;4.33;;
5428;SDS011;2737;52.386;9.980;2022-09-27T04:13:16;7.23;;;4.60;;
5428;SDS011;2737;52.386;9.980;2022-09-27T04:15:44;6.87;;;4.67;;
5428;SDS011;2737;52.386;9.980;2022-09-27T04:18:11;8.53;;;5.10;;
5428;SDS011;2737;52.386;9.980;2022-09-27T04:20:38;11.50;;;4.83;;
5428;SDS011;2737;52.386;9.980;2022-09-27T04:23:06;7.87;;;4.70;;
5428;SDS011;2737;52.386;9.980;2022-09-27T04:25:33;7.47;;;4.90;;
5428;SDS011;2737;52.386;9.980;2022-09-27T04:28:02;6.97;;;4.63;;
5428;SDS011;2737;52.386;9.980;2022-09-27T04:30:31;6.93;;;5.17;;
5428;SDS011;2737;52.386;9.980;2022-09-27T04:32:58;7.60;;;6.00;;
5428;SDS011;2737;52.386;9.980;2022-09-27T04:35:25;6.10;;;5.00;;
5428;SDS011;2737;52.386;9.980;2022-09-27T04:38:09;6.00;;;4.00;;
5428;SDS011;2737;52.386;9.980;2022-09-27T04:40:37;6.60;;;3.97;;
5428;SDS011;2737;52.386;9.980;2022-09-27T04:43:06;5.03;;;3.40;;
5428;SDS011;2737;52.386;9.980;2022-09-27T04:45:33;5.20;;;2.83;;
5428;SDS011;2737;52.386;9.980;2022-09-27T04:48:00;6.93;;;3.43;;
5428;SDS011;2737;52.386;9.980;2022-09-27T04:50:27;5.83;;;3.87;;
5428;SDS011;2737;52.386;9.980;2022-09-27T04:52:56;9.53;;;4.03;;
5428;SDS011;2737;52.386;9.980;2022-09-27T04:55:23;8.80;;;5.07;;
5428;SDS011;2737;52.386;9.980;2022-09-27T04:57:51;4.93;;;3.70;;
5428;SDS011;2737;52.386;9.980;2022-09-27T05:00:20;7.63;;;4.40;;
5428;SDS011;2737;52.386;9.980;2022-09-27T05:02:47;5.50;;;4.50;;
5428;SDS011;2737;52.386;9.980;2022-09-27T05:05:14;5.27;;;3.80;;
5428;SDS011;2737;52.386;9.980;2022-09-27T05:07:41;7.80;;;4.33;;
5428;SDS011;2737;52.386;9.980;2022-09-27T05:10:08;8.70;;;4.10;;
5428;SDS011;2737;52.386;9.980;2022-09-27T05:12:36;6.27;;;4.37;;
5428;SDS011;2737;52.386;9.980;2022-09-27T05:15:03;9.53;;;4.43;;
5428;SDS011;2737;52.386;9.980;2022-09-27T05:17:32;8.20;;;5.17;;
5428;SDS011;2737;52.386;9.980;2022-09-27T05:19:59;11.80;;;6.00;;
5428;SDS011;2737;52.386;9.980;2022-09-27T05:22:27;11.80;;;6.07;;
5428;SDS011;2737;52.386;9.980;2022-09-27T05:24:55;9.80;;;6.20;;
5428;SDS011;2737;52.386;9.980;2022-09-27T05:27:21;12.37;;;6.00;;
5428;SDS011;2737;52.386;9.980;2022-09-27T05:29:48;11.70;;;6.40;;
5428;SDS011;2737;52.386;9.980;2022-09-27T05:32:18;14.77;;;6.73;;
5428;SDS011;2737;52.386;9.980;2022-09-27T05:34:46;11.87;;;6.37;;
5428;SDS011;2737;52.386;9.980;2022-09-27T05:37:14;10.90;;;6.60;;
5428;SDS011;2737;52.386;9.980;2022-09-27T05:39:42;9.60;;;6.47;;
5428;SDS011;2737;52.386;9.980;2022-09-27T05:42:10;13.53;;;6.57;;
5428;SDS011;2737;52.386;9.980;2022-09-27T05:44:39;8.40;;;6.00;;
5428;SDS011;2737;52.386;9.980;2022-09-27T05:47:06;8.70;;;6.53;;
5428;SDS011;2737;52.386;9.980;2022-09-27T05:49:33;8.67;;;5.70;;
5428;SDS011;2737;52.386;9.980;2022-09-27T05:52:02;13.17;;;6.67;;
5428;SDS011;2737;52.386;9.980;2022-09-27T05:54:29;8.97;;;6.20;;
5428;SDS011;2737;52.386;9.980;2022-09-27T05:56:56;7.80;;;5.77;;
5428;SDS011;2737;52.386;9.980;2022-09-27T05:59:24;12.20;;;5.77;;
5428;SDS011;2737;52.386;9.980;2022-09-27T06:01:51;9.23;;;5.30;;
5428;SDS011;2737;52.386;9.980;2022-09-27T06:04:19;10.17;;;5.30;;
5428;SDS011;2737;52.386;9.980;2022-09-27T06:06:46;15.10;;;5.00;;
5428;SDS011;2737;52.386;9.980;2022-09-27T06:09:15;7.83;;;4.70;;
5428;SDS011;2737;52.386;9.980;2022-09-27T06:11:46;8.17;;;4.80;;
5428;SDS011;2737;52.386;9.980;2022-09-27T06:14:16;7.90;;;4.50;;
5428;SDS011;2737;52.386;9.980;2022-09-27T06:16:44;8.50;;;4.57;;
5428;SDS011;2737;52.386;9.980;2022-09-27T06:19:12;10.00;;;5.13;;
5428;SDS011;2737;52.386;9.980;2022-09-27T06:21:39;7.47;;;4.00;;
5428;SDS011;2737;52.386;9.980;2022-09-27T06:24:07;10.03;;;4.17;;
5428;SDS011;2737;52.386;9.980;2022-09-27T06:26:36;6.47;;;4.50;;
5428;SDS011;2737;52.386;9.980;2022-09-27T06:29:03;10.10;;;5.10;;
5428;SDS011;2737;52.386;9.980;2022-09-27T06:31:30;9.23;;;3.77;;
5428;SDS011;2737;52.386;9.980;2022-09-27T06:33:57;9.87;;;4.10;;
5428;SDS011;2737;52.386;9.980;2022-09-27T06:36:24;15.43;;;4.77;;
5428;SDS011;2737;52.386;9.980;2022-09-27T06:38:51;9.30;;;4.80;;
5428;SDS011;2737;52.386;9.980;2022-09-27T06:41:18;11.63;;;4.40;;
5428;SDS011;2737;52.386;9.980;2022-09-27T06:43:48;14.50;;;4.17;;
5428;SDS011;2737;52.386;9.980;2022-09-27T06:46:15;12.00;;;4.40;;
5428;SDS011;2737;52.386;9.980;2022-09-27T06:48:42;15.30;;;4.97;;
5428;SDS011;2737;52.386;9.980;2022-09-27T06:51:09;9.43;;;4.23;;
5428;SDS011;2737;52.386;9.980;2022-09-27T06:53:36;8.77;;;4.63;;
5428;SDS011;2737;52.386;9.980;2022-09-27T06:56:06;16.03;;;4.73;;
5428;SDS011;2737;52.386;9.980;2022-09-27T06:58:36;11.60;;;5.13;;
5428;SDS011;2737;52.386;9.980;2022-09-27T07:01:22;7.10;;;3.80;;
5428;SDS011;2737;52.386;9.980;2022-09-27T07:03:55;7.53;;;4.17;;
5428;SDS011;2737;52.386;9.980;2022-09-27T07:06:23;6.70;;;3.40;;
5428;SDS011;2737;52.386;9.980;2022-09-27T07:08:51;5.90;;;3.20;;
5428;SDS011;2737;52.386;9.980;2022-09-27T07:11:18;5.33;;;3.00;;
5428;SDS011;2737;52.386;9.980;2022-09-27T07:13:47;5.20;;;3.10;;
5428;SDS011;2737;52.386;9.980;2022-09-27T07:16:15;9.30;;;3.93;;
5428;SDS011;2737;52.386;9.980;2022-09-27T07:18:43;6.17;;;2.93;;
5428;SDS011;2737;52.386;9.980;2022-09-27T07:21:10;10.93;;;3.47;;
5428;SDS011;2737;52.386;9.980;2022-09-27T07:23:39;9.40;;;3.77;;
5428;SDS011;2737;52.386;9.980;2022-09-27T07:26:07;7.30;;;3.83;;
5428;SDS011;2737;52.386;9.980;2022-09-27T07:28:35;10.63;;;3.77;;
5428;SDS011;2737;52.386;9.980;2022-09-27T07:31:02;9.23;;;3.80;;
5428;SDS011;2737;52.386;9.980;2022-09-27T07:33:30;9.73;;;3.63;;
5428;SDS011;2737;52.386;9.980;2022-09-27T07:35:59;9.23;;;4.30;;
5428;SDS011;2737;52.386;9.980;2022-09-27T07:38:26;8.00;;;3.60;;
5428;SDS011;2737;52.386;9.980;2022-09-27T07:40:53;8.87;;;4.27;;
5428;SDS011;2737;52.386;9.980;2022-09-27T07:43:20;5.87;;;3.80;;
5428;SDS011;2737;52.386;9.980;2022-09-27T07:45:47;12.70;;;4.03;;
5428;SDS011;2737;52.386;9.980;2022-09-27T07:48:15;8.30;;;4.10;;
5428;SDS011;2737;52.386;9.980;2022-09-27T07:50:42;8.43;;;4.30;;
5428;SDS011;2737;52.386;9.980;2022-09-27T07:53:10;12.00;;;5.00;;
5428;SDS011;2737;52.386;9.980;2022-09-27T07:55:38;10.67;;;5.10;;
5428;SDS011;2737;52.386;9.980;2022-09-27T07:58:07;15.13;;;5.70;;
5428;SDS011;2737;52.386;9.980;2022-09-27T08:00:37;10.20;;;5.07;;
5428;SDS011;2737;52.386;9.980;2022-09-27T08:03:07;14.77;;;4.97;;
5428;SDS011;2737;52.386;9.980;2022-09-27T08:05:38;9.30;;;4.90;;
5428;SDS011;2737;52.386;9.980;2022-09-27T08:08:05;8.80;;;4.63;;
5428;SDS011;2737;52.386;9.980;2022-09-27T08:10:37;11.00;;;4.73;;
5428;SDS011;2737;52.386;9.980;2022-09-27T08:13:11;12.70;;;5.20;;
5428;SDS011;2737;52.386;9.980;2022-09-27T08:15:39;7.93;;;3.70;;
5428;SDS011;2737;52.386;9.980;2022-09-27T08:18:06;11.40;;;4.27;;
5428;SDS011;2737;52.386;9.980;2022-09-27T08:20:34;9.90;;;4.67;;
5428;SDS011;2737;52.386;9.980;2022-09-27T08:23:01;9.00;;;3.60;;
5428;SDS011;2737;52.386;9.980;2022-09-27T08:25:30;7.93;;;3.80;;
5428;SDS011;2737;52.386;9.980;2022-09-27T08:27:59;8.47;;;4.30;;
5428;SDS011;2737;52.386;9.980;2022-09-27T08:30:29;9.70;;;4.53;;
5428;SDS011;2737;52.386;9.980;2022-09-27T08:32:57;9.43;;;4.97;;
5428;SDS011;2737;52.386;9.980;2022-09-27T08:35:25;7.67;;;5.27;;
5428;SDS011;2737;52.386;9.980;2022-09-27T08:37:53;11.27;;;5.70;;
5428;SDS011;2737;52.386;9.980;2022-09-27T08:40:22;13.60;;;6.67;;
5428;SDS011;2737;52.386;9.980;2022-09-27T08:42:56;12.33;;;6.60;;
5428;SDS011;2737;52.386;9.980;2022-09-27T08:45:31;10.60;;;5.90;;
5428;SDS011;2737;52.386;9.980;2022-09-27T08:48:04;12.00;;;6.60;;
5428;SDS011;2737;52.386;9.980;2022-09-27T08:50:32;18.30;;;5.30;;
5428;SDS011;2737;52.386;9.980;2022-09-27T08:53:03;8.00;;;4.30;;
5428;SDS011;2737;52.386;9.980;2022-09-27T08:55:36;8.50;;;4.93;;
5428;SDS011;2737;52.386;9.980;2022-09-27T08:58:11;9.47;;;4.57;;
5428;SDS011;2737;52.386;9.980;2022-09-27T09:00:41;11.20;;;4.77;;
5428;SDS011;2737;52.386;9.980;2022-09-27T09:03:13;9.03;;;4.90;;
5428;SDS011;2737;52.386;9.980;2022-09-27T09:05:45;7.27;;;4.83;;
5428;SDS011;2737;52.386;9.980;2022-09-27T09:08:26;8.93;;;5.30;;
5428;SDS011;2737;52.386;9.980;2022-09-27T09:11:01;12.03;;;5.00;;
5428;SDS011;2737;52.386;9.980;2022-09-27T09:13:59;9.47;;;5.73;;
5428;SDS011;2737;52.386;9.980;2022-09-27T09:16:49;15.63;;;5.60;;
5428;SDS011;2737;52.386;9.980;2022-09-27T09:19:36;9.23;;;5.90;;
5428;SDS011;2737;52.386;9.980;2022-09-27T09:22:17;10.30;;;5.77;;
5428;SDS011;2737;52.386;9.980;2022-09-27T09:25:19;8.03;;;4.70;;
5428;SDS011;2737;52.386;9.980;2022-09-27T09:27:53;13.70;;;5.50;;
5428;SDS011;2737;52.386;9.980;2022-09-27T09:30:34;9.30;;;5.37;;
5428;SDS011;2737;52.386;9.980;2022-09-27T09:33:18;11.83;;;6.13;;
5428;SDS011;2737;52.386;9.980;2022-09-27T09:35:51;12.63;;;4.70;;
5428;SDS011;2737;52.386;9.980;2022-09-27T09:38:25;5.87;;;4.60;;
5428;SDS011;2737;52.386;9.980;2022-09-27T09:41:00;6.00;;;3.87;;
5428;SDS011;2737;52.386;9.980;2022-09-27T09:43:32;8.40;;;3.63;;
5428;SDS011;2737;52.386;9.980;2022-09-27T09:46:08;3.90;;;3.40;;
5428;SDS011;2737;52.386;9.980;2022-09-27T09:48:41;6.03;;;3.47;;
5428;SDS011;2737;52.386;9.980;2022-09-27T09:51:12;6.60;;;3.50;;
5428;SDS011;2737;52.386;9.980;2022-09-27T09:53:44;4.10;;;2.90;;
5428;SDS011;2737;52.386;9.980;2022-09-27T09:56:18;6.60;;;2.70;;
5428;SDS011;2737;52.386;9.980;2022-09-27T09:58:50;8.57;;;3.40;;
5428;SDS011;2737;52.386;9.980;2022-09-27T10:01:24;6.93;;;2.97;;
5428;SDS011;2737;52.386;9.980;2022-09-27T10:03:53;6.60;;;2.70;;
5428;SDS011;2737;52.386;9.980;2022-09-27T10:06:21;5.30;;;3.10;;
5428;SDS011;2737;52.386;9.980;2022-09-27T10:08:50;5.37;;;3.60;;
5428;SDS011;2737;52.386;9.980;2022-09-27T10:11:23;6.37;;;4.20;;
5428;SDS011;2737;52.386;9.980;2022-09-27T10:13:52;5.13;;;3.00;;
5428;SDS011;2737;52.386;9.980;2022-09-27T10:16:20;3.67;;;2.37;;
5428;SDS011;2737;52.386;9.980;2022-09-27T10:18:51;6.53;;;1.80;;
5428;SDS011;2737;52.386;9.980;2022-09-27T10:21:24;4.13;;;2.10;;
5428;SDS011;2737;52.386;9.980;2022-09-27T10:24:04;4.03;;;2.33;;
5428;SDS011;2737;52.386;9.980;2022-09-27T10:26:33;3.57;;;2.70;;
5428;SDS011;2737;52.386;9.980;2022-09-27T10:29:21;3.60;;;2.03;;
5428;SDS011;2737;52.386;9.980;2022-09-27T10:31:50;3.30;;;2.23;;
5428;SDS011;2737;52.386;9.980;2022-09-27T10:34:19;10.67;;;2.77;;
5428;SDS011;2737;52.386;9.980;2022-09-27T10:37:02;4.97;;;2.03;;
5428;SDS011;2737;52.386;9.980;2022-09-27T10:39:32;3.73;;;2.40;;
5428;SDS011;2737;52.386;9.980;2022-09-27T10:42:01;4.30;;;2.23;;
5428;SDS011;2737;52.386;9.980;2022-09-27T10:44:28;3.40;;;1.90;;
5428;SDS011;2737;52.386;9.980;2022-09-27T10:47:00;3.37;;;2.07;;
5428;SDS011;2737;52.386;9.980;2022-09-27T10:49:34;5.43;;;2.03;;
5428;SDS011;2737;52.386;9.980;2022-09-27T10:52:04;2.53;;;1.70;;
5428;SDS011;2737;52.386;9.980;2022-09-27T10:54:34;1.80;;;1.70;;
5428;SDS011;2737;52.386;9.980;2022-09-27T10:57:03;2.07;;;1.87;;
5428;SDS011;2737;52.386;9.980;2022-09-27T10:59:32;2.47;;;1.10;;
5428;SDS011;2737;52.386;9.980;2022-09-27T11:02:01;3.90;;;1.10;;
5428;SDS011;2737;52.386;9.980;2022-09-27T11:04:31;3.13;;;1.30;;
5428;SDS011;2737;52.386;9.980;2022-09-27T11:07:11;5.57;;;1.13;;
5428;SDS011;2737;52.386;9.980;2022-09-27T11:09:48;2.80;;;1.10;;
5428;SDS011;2737;52.386;9.980;2022-09-27T11:12:18;3.30;;;1.47;;
5428;SDS011;2737;52.386;9.980;2022-09-27T11:14:51;2.57;;;1.53;;
5428;SDS011;2737;52.386;9.980;2022-09-27T11:17:23;1.97;;;1.10;;
5428;SDS011;2737;52.386;9.980;2022-09-27T11:25:45;1.07;;;0.90;;
5428;SDS011;2737;52.386;9.980;2022-09-27T11:28:35;2.53;;;0.90;;
5428;SDS011;2737;52.386;9.980;2022-09-27T11:31:15;1.77;;;0.80;;
5428;SDS011;2737;52.386;9.980;2022-09-27T11:34:02;3.67;;;1.00;;
5428;SDS011;2737;52.386;9.980;2022-09-27T11:36:46;2.70;;;1.23;;
5428;SDS011;2737;52.386;9.980;2022-09-27T11:39:24;3.43;;;1.10;;
5428;SDS011;2737;52.386;9.980;2022-09-27T11:42:00;2.33;;;0.77;;
5428;SDS011;2737;52.386;9.980;2022-09-27T11:44:43;4.70;;;0.90;;
5428;SDS011;2737;52.386;9.980;2022-09-27T11:47:20;1.37;;;0.80;;
5428;SDS011;2737;52.386;9.980;2022-09-27T11:52:54;3.50;;;0.70;;
5428;SDS011;2737;52.386;9.980;2022-09-27T11:55:37;2.37;;;1.00;;
5428;SDS011;2737;52.386;9.980;2022-09-27T11:58:12;1.50;;;0.63;;
5428;SDS011;2737;52.386;9.980;2022-09-27T12:00:53;2.83;;;0.70;;
5428;SDS011;2737;52.386;9.980;2022-09-27T12:03:46;2.10;;;0.87;;
5428;SDS011;2737;52.386;9.980;2022-09-27T12:06:32;1.00;;;0.80;;
5428;SDS011;2737;52.386;9.980;2022-09-27T12:09:07;2.80;;;0.60;;
5428;SDS011;2737;52.386;9.980;2022-09-27T12:11:38;1.13;;;0.80;;
5428;SDS011;2737;52.386;9.980;2022-09-27T12:14:14;2.57;;;0.70;;
5428;SDS011;2737;52.386;9.980;2022-09-27T12:16:45;0.77;;;0.67;;
5428;SDS011;2737;52.386;9.980;2022-09-27T12:19:17;1.10;;;0.63;;
5428;SDS011;2737;52.386;9.980;2022-09-27T12:21:49;0.57;;;0.57;;
5428;SDS011;2737;52.386;9.980;2022-09-27T12:24:19;0.83;;;0.73;;
5428;SDS011;2737;52.386;9.980;2022-09-27T12:26:57;2.30;;;0.80;;
5428;SDS011;2737;52.386;9.980;2022-09-27T12:29:27;1.57;;;0.80;;
5428;SDS011;2737;52.386;9.980;2022-09-27T12:31:58;1.03;;;0.60;;
5428;SDS011;2737;52.386;9.980;2022-09-27T12:34:35;3.37;;;0.97;;
5428;SDS011;2737;52.386;9.980;2022-09-27T12:37:07;2.00;;;0.90;;
5428;SDS011;2737;52.386;9.980;2022-09-27T12:39:42;2.00;;;0.97;;
5428;SDS011;2737;52.386;9.980;2022-09-27T12:42:15;4.33;;;0.80;;
5428;SDS011;2737;52.386;9.980;2022-09-27T12:44:50;1.23;;;0.90;;
5428;SDS011;2737;52.386;9.980;2022-09-27T12:47:28;1.73;;;1.00;;
5428;SDS011;2737;52.386;9.980;2022-09-27T12:50:14;0.83;;;0.80;;
5428;SDS011;2737;52.386;9.980;2022-09-27T12:52:49;2.33;;;1.00;;
5428;SDS011;2737;52.386;9.980;2022-09-27T12:58:29;5.40;;;1.30;;
5428;SDS011;2737;52.386;9.980;2022-09-27T13:01:17;1.50;;;0.93;;
5428;SDS011;2737;52.386;9.980;2022-09-27T13:04:01;3.80;;;0.90;;
5428;SDS011;2737;52.386;9.980;2022-09-27T13:06:40;0.90;;;0.70;;
5428;SDS011;2737;52.386;9.980;2022-09-27T13:09:26;1.63;;;0.80;;
5428;SDS011;2737;52.386;9.980;2022-09-27T13:12:10;3.20;;;0.90;;
5428;SDS011;2737;52.386;9.980;2022-09-27T13:14:40;1.97;;;0.93;;
5428;SDS011;2737;52.386;9.980;2022-09-27T13:29:30;1.77;;;1.00;;
5428;SDS011;2737;52.386;9.980;2022-09-27T13:34:48;1.83;;;1.00;;
5428;SDS011;2737;52.386;9.980;2022-09-27T13:37:22;4.23;;;1.37;;
5428;SDS011;2737;52.386;9.980;2022-09-27T13:40:19;1.40;;;1.20;;
5428;SDS011;2737;52.386;9.980;2022-09-27T13:45:59;1.00;;;0.80;;
5428;SDS011;2737;52.386;9.980;2022-09-27T13:48:38;3.57;;;1.07;;
5428;SDS011;2737;52.386;9.980;2022-09-27T13:51:16;1.97;;;1.13;;
5428;SDS011;2737;52.386;9.980;2022-09-27T13:53:59;1.63;;;0.90;;
5428;SDS011;2737;52.386;9.980;2022-09-27T13:59:30;1.80;;;0.90;;
5428;SDS011;2737;52.386;9.980;2022-09-27T14:02:12;1.20;;;1.00;;
5428;SDS011;2737;52.386;9.980;2022-09-27T14:04:46;0.90;;;0.90;;
5428;SDS011;2737;52.386;9.980;2022-09-27T14:07:16;1.53;;;0.90;;
5428;SDS011;2737;52.386;9.980;2022-09-27T14:09:45;2.80;;;1.10;;
5428;SDS011;2737;52.386;9.980;2022-09-27T14:12:17;1.67;;;1.00;;
5428;SDS011;2737;52.386;9.980;2022-09-27T14:14:45;2.53;;;1.30;;
5428;SDS011;2737;52.386;9.980;2022-09-27T14:17:16;1.73;;;0.93;;
5428;SDS011;2737;52.386;9.980;2022-09-27T14:19:44;1.00;;;0.90;;
5428;SDS011;2737;52.386;9.980;2022-09-27T14:22:13;0.90;;;0.90;;
5428;SDS011;2737;52.386;9.980;2022-09-27T14:24:45;3.07;;;1.00;;
5428;SDS011;2737;52.386;9.980;2022-09-27T14:27:14;2.00;;;1.20;;
5428;SDS011;2737;52.386;9.980;2022-09-27T14:29:44;2.00;;;0.93;;
5428;SDS011;2737;52.386;9.980;2022-09-27T14:32:14;2.87;;;1.00;;
5428;SDS011;2737;52.386;9.980;2022-09-27T14:34:44;1.73;;;0.87;;
5428;SDS011;2737;52.386;9.980;2022-09-27T14:37:28;0.90;;;0.90;;
5428;SDS011;2737;52.386;9.980;2022-09-27T14:39:55;5.23;;;1.13;;
5428;SDS011;2737;52.386;9.980;2022-09-27T14:42:30;1.00;;;0.60;;
5428;SDS011;2737;52.386;9.980;2022-09-27T14:45:02;0.60;;;0.60;;
5428;SDS011;2737;52.386;9.980;2022-09-27T14:47:44;1.07;;;0.70;;
5428;SDS011;2737;52.386;9.980;2022-09-27T14:50:22;1.97;;;1.00;;
5428;SDS011;2737;52.386;9.980;2022-09-27T14:52:53;7.80;;;0.80;;
5428;SDS011;2737;52.386;9.980;2022-09-27T14:55:22;0.90;;;0.60;;
5428;SDS011;2737;52.386;9.980;2022-09-27T14:57:53;1.20;;;0.60;;
5428;SDS011;2737;52.386;9.980;2022-09-27T15:00:24;1.23;;;0.80;;
5428;SDS011;2737;52.386;9.980;2022-09-27T15:02:57;0.70;;;0.70;;
5428;SDS011;2737;52.386;9.980;2022-09-27T15:05:28;1.10;;;0.63;;
5428;SDS011;2737;52.386;9.980;2022-09-27T15:07:57;2.43;;;1.20;;
5428;SDS011;2737;52.386;9.980;2022-09-27T15:10:26;4.43;;;1.60;;
5428;SDS011;2737;52.386;9.980;2022-09-27T15:12:56;1.60;;;0.90;;
5428;SDS011;2737;52.386;9.980;2022-09-27T15:15:26;1.50;;;0.87;;
5428;SDS011;2737;52.386;9.980;2022-09-27T15:17:58;0.80;;;0.80;;
5428;SDS011;2737;52.386;9.980;2022-09-27T15:20:26;4.73;;;1.13;;
5428;SDS011;2737;52.386;9.980;2022-09-27T15:22:56;1.97;;;0.90;;
5428;SDS011;2737;52.386;9.980;2022-09-27T15:25:25;1.27;;;0.90;;
5428;SDS011;2737;52.386;9.980;2022-09-27T15:27:59;2.07;;;0.93;;
5428;SDS011;2737;52.386;9.980;2022-09-27T15:30:32;2.50;;;0.83;;
5428;SDS011;2737;52.386;9.980;2022-09-27T15:33:02;1.60;;;1.07;;
5428;SDS011;2737;52.386;9.980;2022-09-27T15:35:31;2.50;;;1.17;;
5428;SDS011;2737;52.386;9.980;2022-09-27T15:43:40;3.13;;;1.50;;
5428;SDS011;2737;52.386;9.980;2022-09-27T15:46:25;3.10;;;2.27;;
5428;SDS011;2737;52.386;9.980;2022-09-27T15:52:03;3.10;;;1.80;;
5428;SDS011;2737;52.386;9.980;2022-09-27T15:54:31;4.00;;;1.97;;
5428;SDS011;2737;52.386;9.980;2022-09-27T15:57:01;1.97;;;1.47;;
5428;SDS011;2737;52.386;9.980;2022-09-27T15:59:33;1.80;;;1.50;;
5428;SDS011;2737;52.386;9.980;2022-09-27T16:02:02;3.40;;;2.10;;
5428;SDS011;2737;52.386;9.980;2022-09-27T16:04:36;2.63;;;2.30;;
5428;SDS011;2737;52.386;9.980;2022-09-27T16:07:03;4.43;;;3.10;;
5428;SDS011;2737;52.386;9.980;2022-09-27T16:09:33;3.77;;;2.13;;
5428;SDS011;2737;52.386;9.980;2022-09-27T16:12:00;7.43;;;4.33;;
5428;SDS011;2737;52.386;9.980;2022-09-27T16:14:27;5.20;;;3.50;;
5428;SDS011;2737;52.386;9.980;2022-09-27T16:16:54;3.63;;;2.13;;
5428;SDS011;2737;52.386;9.980;2022-09-27T16:19:24;3.90;;;2.80;;
5428;SDS011;2737;52.386;9.980;2022-09-27T16:21:55;11.33;;;4.90;;
5428;SDS011;2737;52.386;9.980;2022-09-27T16:24:22;7.60;;;3.47;;
5428;SDS011;2737;52.386;9.980;2022-09-27T16:26:49;2.63;;;1.90;;